sensor_id;sensor_type;location;lat;lon;timestamp;P1;durP1;ratioP1;P2;durP2;ratioP2
35961;SDS011;22044;48.298;10.008;2023-11-21T00:01:28;5.25;;;2.20;;
35961;SDS011;22044;48.298;10.008;2023-11-21T00:04:14;7.13;;;1.73;;
35961;SDS011;22044;48.298;10.008;2023-11-21T00:06:59;5.93;;;1.90;;
35961;SDS011;22044;48.298;10.008;2023-11-21T00:09:46;7.43;;;2.03;;
35961;SDS011;22044;48.298;10.008;2023-11-21T00:12:32;4.73;;;1.83;;
35961;SDS011;22044;48.298;10.008;2023-11-21T00:15:18;6.03;;;1.90;;
35961;SDS011;22044;48.298;10.008;2023-11-21T00:18:04;6.00;;;1.87;;
35961;SDS011;22044;48.298;10.008;2023-11-21T00:20:50;8.87;;;2.10;;
35961;SDS011;22044;48.298;10.008;2023-11-21T00:23:35;9.13;;;2.10;;
35961;SDS011;22044;48.298;10.008;2023-11-21T00:26:22;12.83;;;1.93;;
35961;SDS011;22044;48.298;10.008;2023-11-21T00:29:18;4.57;;;2.00;;
35961;SDS011;22044;48.298;10.008;2023-11-21T00:32:04;5.13;;;1.80;;
35961;SDS011;22044;48.298;10.008;2023-11-21T00:34:50;4.77;;;1.73;;
35961;SDS011;22044;48.298;10.008;2023-11-21T00:37:36;3.13;;;1.53;;
35961;SDS011;22044;48.298;10.008;2023-11-21T00:40:23;5.47;;;1.40;;
35961;SDS011;22044;48.298;10.008;2023-11-21T00:43:10;6.00;;;1.60;;
35961;SDS011;22044;48.298;10.008;2023-11-21T00:45:56;5.30;;;1.57;;
35961;SDS011;22044;48.298;10.008;2023-11-21T00:48:41;6.13;;;2.30;;
35961;SDS011;22044;48.298;10.008;2023-11-21T00:51:27;5.20;;;1.77;;
35961;SDS011;22044;48.298;10.008;2023-11-21T00:54:13;7.57;;;2.10;;
35961;SDS011;22044;48.298;10.008;2023-11-21T00:57:00;9.07;;;1.90;;
35961;SDS011;22044;48.298;10.008;2023-11-21T00:59:48;8.30;;;1.97;;
35961;SDS011;22044;48.298;10.008;2023-11-21T01:02:33;4.43;;;1.50;;
35961;SDS011;22044;48.298;10.008;2023-11-21T01:05:20;3.67;;;1.60;;
35961;SDS011;22044;48.298;10.008;2023-11-21T01:08:06;6.30;;;1.73;;
35961;SDS011;22044;48.298;10.008;2023-11-21T01:10:51;5.70;;;1.60;;
35961;SDS011;22044;48.298;10.008;2023-11-21T01:13:37;5.20;;;2.00;;
35961;SDS011;22044;48.298;10.008;2023-11-21T01:16:24;3.87;;;2.00;;
35961;SDS011;22044;48.298;10.008;2023-11-21T01:19:11;7.60;;;2.20;;
35961;SDS011;22044;48.298;10.008;2023-11-21T01:21:57;4.47;;;2.00;;
35961;SDS011;22044;48.298;10.008;2023-11-21T01:24:43;5.20;;;2.23;;
35961;SDS011;22044;48.298;10.008;2023-11-21T01:27:29;4.33;;;1.57;;
35961;SDS011;22044;48.298;10.008;2023-11-21T01:30:15;5.27;;;1.60;;
35961;SDS011;22044;48.298;10.008;2023-11-21T01:33:02;7.07;;;1.80;;
35961;SDS011;22044;48.298;10.008;2023-11-21T01:35:48;6.43;;;1.90;;
35961;SDS011;22044;48.298;10.008;2023-11-21T01:38:34;5.93;;;1.80;;
35961;SDS011;22044;48.298;10.008;2023-11-21T01:41:20;5.37;;;1.70;;
35961;SDS011;22044;48.298;10.008;2023-11-21T01:44:05;6.50;;;1.93;;
35961;SDS011;22044;48.298;10.008;2023-11-21T01:46:53;5.33;;;1.67;;
35961;SDS011;22044;48.298;10.008;2023-11-21T01:49:43;7.67;;;2.17;;
35961;SDS011;22044;48.298;10.008;2023-11-21T01:52:30;1.97;;;1.53;;
35961;SDS011;22044;48.298;10.008;2023-11-21T01:55:16;7.93;;;2.13;;
35961;SDS011;22044;48.298;10.008;2023-11-21T01:58:03;6.80;;;2.00;;
35961;SDS011;22044;48.298;10.008;2023-11-21T02:00:49;7.00;;;1.93;;
35961;SDS011;22044;48.298;10.008;2023-11-21T02:03:35;8.67;;;1.97;;
35961;SDS011;22044;48.298;10.008;2023-11-21T02:06:22;6.27;;;1.93;;
35961;SDS011;22044;48.298;10.008;2023-11-21T02:09:10;9.50;;;2.50;;
35961;SDS011;22044;48.298;10.008;2023-11-21T02:11:58;5.47;;;1.83;;
35961;SDS011;22044;48.298;10.008;2023-11-21T02:14:44;9.87;;;2.10;;
35961;SDS011;22044;48.298;10.008;2023-11-21T02:17:30;3.83;;;1.60;;
35961;SDS011;22044;48.298;10.008;2023-11-21T02:20:16;6.80;;;2.33;;
35961;SDS011;22044;48.298;10.008;2023-11-21T02:23:05;5.63;;;1.80;;
35961;SDS011;22044;48.298;10.008;2023-11-21T02:25:51;3.67;;;2.07;;
35961;SDS011;22044;48.298;10.008;2023-11-21T02:28:37;9.23;;;1.90;;
35961;SDS011;22044;48.298;10.008;2023-11-21T02:31:22;5.20;;;1.87;;
35961;SDS011;22044;48.298;10.008;2023-11-21T02:34:08;6.33;;;1.50;;
35961;SDS011;22044;48.298;10.008;2023-11-21T02:36:54;5.33;;;2.13;;
35961;SDS011;22044;48.298;10.008;2023-11-21T02:39:42;3.33;;;2.00;;
35961;SDS011;22044;48.298;10.008;2023-11-21T02:42:27;4.10;;;1.60;;
35961;SDS011;22044;48.298;10.008;2023-11-21T02:45:14;6.80;;;1.87;;
35961;SDS011;22044;48.298;10.008;2023-11-21T02:48:02;7.67;;;1.70;;
35961;SDS011;22044;48.298;10.008;2023-11-21T02:50:48;7.33;;;1.83;;
35961;SDS011;22044;48.298;10.008;2023-11-21T02:53:34;4.97;;;1.50;;
35961;SDS011;22044;48.298;10.008;2023-11-21T02:56:23;4.77;;;1.60;;
35961;SDS011;22044;48.298;10.008;2023-11-21T02:59:09;4.63;;;1.40;;
35961;SDS011;22044;48.298;10.008;2023-11-21T03:01:55;5.93;;;1.50;;
35961;SDS011;22044;48.298;10.008;2023-11-21T03:04:41;3.33;;;1.40;;
35961;SDS011;22044;48.298;10.008;2023-11-21T03:07:27;3.30;;;1.23;;
35961;SDS011;22044;48.298;10.008;2023-11-21T03:10:13;4.83;;;1.67;;
35961;SDS011;22044;48.298;10.008;2023-11-21T03:13:00;3.93;;;1.30;;
35961;SDS011;22044;48.298;10.008;2023-11-21T03:15:45;5.50;;;1.30;;
35961;SDS011;22044;48.298;10.008;2023-11-21T03:18:31;4.73;;;1.37;;
35961;SDS011;22044;48.298;10.008;2023-11-21T03:21:16;5.90;;;1.43;;
35961;SDS011;22044;48.298;10.008;2023-11-21T03:24:03;3.57;;;1.43;;
35961;SDS011;22044;48.298;10.008;2023-11-21T03:26:50;5.20;;;1.47;;
35961;SDS011;22044;48.298;10.008;2023-11-21T03:29:37;3.47;;;2.03;;
35961;SDS011;22044;48.298;10.008;2023-11-21T03:32:23;4.57;;;1.73;;
35961;SDS011;22044;48.298;10.008;2023-11-21T03:35:09;6.63;;;1.53;;
35961;SDS011;22044;48.298;10.008;2023-11-21T03:37:54;5.60;;;1.43;;
35961;SDS011;22044;48.298;10.008;2023-11-21T03:40:40;3.73;;;1.30;;
35961;SDS011;22044;48.298;10.008;2023-11-21T03:43:25;5.40;;;1.30;;
35961;SDS011;22044;48.298;10.008;2023-11-21T03:46:12;3.60;;;1.20;;
35961;SDS011;22044;48.298;10.008;2023-11-21T03:48:58;4.03;;;1.40;;
35961;SDS011;22044;48.298;10.008;2023-11-21T03:51:44;7.80;;;2.10;;
35961;SDS011;22044;48.298;10.008;2023-11-21T03:54:29;6.63;;;1.53;;
35961;SDS011;22044;48.298;10.008;2023-11-21T03:57:15;5.30;;;1.47;;
35961;SDS011;22044;48.298;10.008;2023-11-21T04:00:01;3.23;;;1.23;;
35961;SDS011;22044;48.298;10.008;2023-11-21T04:02:57;3.90;;;1.37;;
35961;SDS011;22044;48.298;10.008;2023-11-21T04:05:43;2.80;;;1.20;;
35961;SDS011;22044;48.298;10.008;2023-11-21T04:08:29;4.90;;;1.10;;
35961;SDS011;22044;48.298;10.008;2023-11-21T04:11:17;3.33;;;1.50;;
35961;SDS011;22044;48.298;10.008;2023-11-21T04:14:03;4.07;;;1.33;;
35961;SDS011;22044;48.298;10.008;2023-11-21T04:16:48;3.07;;;1.87;;
35961;SDS011;22044;48.298;10.008;2023-11-21T04:19:35;5.10;;;1.83;;
35961;SDS011;22044;48.298;10.008;2023-11-21T04:22:21;3.83;;;1.20;;
35961;SDS011;22044;48.298;10.008;2023-11-21T04:25:07;4.73;;;1.40;;
35961;SDS011;22044;48.298;10.008;2023-11-21T04:27:54;2.40;;;1.20;;
35961;SDS011;22044;48.298;10.008;2023-11-21T04:30:39;3.60;;;1.37;;
35961;SDS011;22044;48.298;10.008;2023-11-21T04:33:25;5.10;;;1.53;;
35961;SDS011;22044;48.298;10.008;2023-11-21T04:36:12;3.57;;;1.60;;
35961;SDS011;22044;48.298;10.008;2023-11-21T04:38:58;4.57;;;1.60;;
35961;SDS011;22044;48.298;10.008;2023-11-21T04:41:43;4.97;;;1.60;;
35961;SDS011;22044;48.298;10.008;2023-11-21T04:44:29;6.57;;;2.00;;
35961;SDS011;22044;48.298;10.008;2023-11-21T04:47:15;5.37;;;1.60;;
35961;SDS011;22044;48.298;10.008;2023-11-21T04:50:03;6.23;;;1.53;;
35961;SDS011;22044;48.298;10.008;2023-11-21T04:52:52;3.70;;;1.40;;
35961;SDS011;22044;48.298;10.008;2023-11-21T04:55:38;4.20;;;1.80;;
35961;SDS011;22044;48.298;10.008;2023-11-21T04:58:23;4.07;;;1.53;;
35961;SDS011;22044;48.298;10.008;2023-11-21T05:01:09;3.37;;;1.60;;
35961;SDS011;22044;48.298;10.008;2023-11-21T05:03:55;4.37;;;1.60;;
35961;SDS011;22044;48.298;10.008;2023-11-21T05:06:42;3.63;;;1.67;;
35961;SDS011;22044;48.298;10.008;2023-11-21T05:09:29;4.40;;;1.80;;
35961;SDS011;22044;48.298;10.008;2023-11-21T05:12:16;4.80;;;1.50;;
35961;SDS011;22044;48.298;10.008;2023-11-21T05:15:02;4.03;;;1.93;;
35961;SDS011;22044;48.298;10.008;2023-11-21T05:17:53;4.60;;;1.63;;
35961;SDS011;22044;48.298;10.008;2023-11-21T05:20:39;3.80;;;1.40;;
35961;SDS011;22044;48.298;10.008;2023-11-21T05:23:24;6.10;;;1.73;;
35961;SDS011;22044;48.298;10.008;2023-11-21T05:26:11;5.83;;;1.40;;
35961;SDS011;22044;48.298;10.008;2023-11-21T05:28:57;4.40;;;1.50;;
35961;SDS011;22044;48.298;10.008;2023-11-21T05:31:43;4.00;;;1.80;;
35961;SDS011;22044;48.298;10.008;2023-11-21T05:34:28;2.70;;;1.40;;
35961;SDS011;22044;48.298;10.008;2023-11-21T05:37:14;3.17;;;1.40;;
35961;SDS011;22044;48.298;10.008;2023-11-21T05:40:01;3.30;;;1.60;;
35961;SDS011;22044;48.298;10.008;2023-11-21T05:42:51;4.30;;;1.17;;
35961;SDS011;22044;48.298;10.008;2023-11-21T05:45:36;4.50;;;1.90;;
35961;SDS011;22044;48.298;10.008;2023-11-21T05:48:22;3.20;;;1.67;;
35961;SDS011;22044;48.298;10.008;2023-11-21T05:51:09;2.73;;;1.20;;
35961;SDS011;22044;48.298;10.008;2023-11-21T05:53:56;4.90;;;1.30;;
35961;SDS011;22044;48.298;10.008;2023-11-21T05:56:42;5.87;;;1.50;;
35961;SDS011;22044;48.298;10.008;2023-11-21T05:59:29;3.77;;;1.70;;
35961;SDS011;22044;48.298;10.008;2023-11-21T06:02:15;3.77;;;1.80;;
35961;SDS011;22044;48.298;10.008;2023-11-21T06:05:00;2.93;;;1.27;;
35961;SDS011;22044;48.298;10.008;2023-11-21T06:07:47;2.67;;;1.43;;
35961;SDS011;22044;48.298;10.008;2023-11-21T06:10:33;3.80;;;1.30;;
35961;SDS011;22044;48.298;10.008;2023-11-21T06:13:19;2.30;;;1.23;;
35961;SDS011;22044;48.298;10.008;2023-11-21T06:16:09;4.90;;;1.40;;
35961;SDS011;22044;48.298;10.008;2023-11-21T06:18:57;4.30;;;1.47;;
35961;SDS011;22044;48.298;10.008;2023-11-21T06:21:45;3.80;;;1.30;;
35961;SDS011;22044;48.298;10.008;2023-11-21T06:24:31;2.87;;;1.13;;
35961;SDS011;22044;48.298;10.008;2023-11-21T06:27:17;1.70;;;1.30;;
35961;SDS011;22044;48.298;10.008;2023-11-21T06:30:03;2.63;;;1.50;;
35961;SDS011;22044;48.298;10.008;2023-11-21T06:32:54;3.00;;;1.33;;
35961;SDS011;22044;48.298;10.008;2023-11-21T06:35:39;2.87;;;1.33;;
35961;SDS011;22044;48.298;10.008;2023-11-21T06:38:25;5.17;;;1.40;;
35961;SDS011;22044;48.298;10.008;2023-11-21T06:41:13;2.90;;;1.47;;
35961;SDS011;22044;48.298;10.008;2023-11-21T06:43:59;2.73;;;1.40;;
35961;SDS011;22044;48.298;10.008;2023-11-21T06:46:46;2.53;;;1.30;;
35961;SDS011;22044;48.298;10.008;2023-11-21T06:49:33;4.67;;;2.00;;
35961;SDS011;22044;48.298;10.008;2023-11-21T06:52:20;3.47;;;1.60;;
35961;SDS011;22044;48.298;10.008;2023-11-21T06:55:06;1.90;;;1.20;;
35961;SDS011;22044;48.298;10.008;2023-11-21T06:57:53;3.57;;;1.30;;
35961;SDS011;22044;48.298;10.008;2023-11-21T07:00:39;2.90;;;1.67;;
35961;SDS011;22044;48.298;10.008;2023-11-21T07:03:25;4.83;;;1.50;;
35961;SDS011;22044;48.298;10.008;2023-11-21T07:06:12;2.43;;;1.10;;
35961;SDS011;22044;48.298;10.008;2023-11-21T07:08:58;4.47;;;1.63;;
35961;SDS011;22044;48.298;10.008;2023-11-21T07:11:45;6.23;;;1.43;;
35961;SDS011;22044;48.298;10.008;2023-11-21T07:14:32;4.57;;;1.90;;
35961;SDS011;22044;48.298;10.008;2023-11-21T07:17:17;4.10;;;1.40;;
35961;SDS011;22044;48.298;10.008;2023-11-21T07:20:03;5.63;;;1.60;;
35961;SDS011;22044;48.298;10.008;2023-11-21T07:22:58;3.20;;;1.67;;
35961;SDS011;22044;48.298;10.008;2023-11-21T07:25:45;3.33;;;1.37;;
35961;SDS011;22044;48.298;10.008;2023-11-21T07:28:30;3.43;;;1.40;;
35961;SDS011;22044;48.298;10.008;2023-11-21T07:31:16;4.87;;;1.70;;
35961;SDS011;22044;48.298;10.008;2023-11-21T07:34:02;3.00;;;1.70;;
35961;SDS011;22044;48.298;10.008;2023-11-21T07:36:48;3.60;;;1.40;;
35961;SDS011;22044;48.298;10.008;2023-11-21T07:39:35;5.20;;;2.50;;
35961;SDS011;22044;48.298;10.008;2023-11-21T07:42:21;2.47;;;1.80;;
35961;SDS011;22044;48.298;10.008;2023-11-21T07:45:07;4.67;;;1.90;;
35961;SDS011;22044;48.298;10.008;2023-11-21T07:47:53;5.50;;;2.37;;
35961;SDS011;22044;48.298;10.008;2023-11-21T07:50:39;4.60;;;1.97;;
35961;SDS011;22044;48.298;10.008;2023-11-21T07:53:24;4.57;;;2.00;;
35961;SDS011;22044;48.298;10.008;2023-11-21T07:56:14;5.73;;;1.83;;
35961;SDS011;22044;48.298;10.008;2023-11-21T07:58:59;4.60;;;2.03;;
35961;SDS011;22044;48.298;10.008;2023-11-21T08:01:45;5.77;;;1.63;;
35961;SDS011;22044;48.298;10.008;2023-11-21T08:04:31;3.90;;;2.03;;
35961;SDS011;22044;48.298;10.008;2023-11-21T08:07:16;8.30;;;1.90;;
35961;SDS011;22044;48.298;10.008;2023-11-21T08:10:02;5.70;;;1.83;;
35961;SDS011;22044;48.298;10.008;2023-11-21T08:12:50;9.20;;;2.30;;
35961;SDS011;22044;48.298;10.008;2023-11-21T08:15:36;5.33;;;1.73;;
35961;SDS011;22044;48.298;10.008;2023-11-21T08:18:22;8.23;;;2.23;;
35961;SDS011;22044;48.298;10.008;2023-11-21T08:21:08;6.83;;;2.43;;
35961;SDS011;22044;48.298;10.008;2023-11-21T08:23:56;5.43;;;1.90;;
35961;SDS011;22044;48.298;10.008;2023-11-21T08:26:41;7.47;;;2.20;;
35961;SDS011;22044;48.298;10.008;2023-11-21T08:29:28;4.97;;;2.00;;
35961;SDS011;22044;48.298;10.008;2023-11-21T08:32:15;4.83;;;2.33;;
35961;SDS011;22044;48.298;10.008;2023-11-21T08:35:00;4.77;;;2.30;;
35961;SDS011;22044;48.298;10.008;2023-11-21T08:37:46;3.30;;;2.50;;
35961;SDS011;22044;48.298;10.008;2023-11-21T08:40:32;3.93;;;2.17;;
35961;SDS011;22044;48.298;10.008;2023-11-21T08:43:17;9.37;;;2.40;;
35961;SDS011;22044;48.298;10.008;2023-11-21T08:46:06;4.27;;;1.97;;
35961;SDS011;22044;48.298;10.008;2023-11-21T08:48:52;6.40;;;2.90;;
35961;SDS011;22044;48.298;10.008;2023-11-21T08:51:38;4.37;;;2.13;;
35961;SDS011;22044;48.298;10.008;2023-11-21T08:54:23;4.80;;;2.00;;
35961;SDS011;22044;48.298;10.008;2023-11-21T08:57:09;3.33;;;1.67;;
35961;SDS011;22044;48.298;10.008;2023-11-21T08:59:55;4.17;;;1.90;;
35961;SDS011;22044;48.298;10.008;2023-11-21T09:02:42;5.93;;;2.47;;
35961;SDS011;22044;48.298;10.008;2023-11-21T09:05:30;3.50;;;2.20;;
35961;SDS011;22044;48.298;10.008;2023-11-21T09:08:16;6.00;;;2.50;;
35961;SDS011;22044;48.298;10.008;2023-11-21T09:11:01;4.83;;;2.27;;
35961;SDS011;22044;48.298;10.008;2023-11-21T09:13:47;5.90;;;2.80;;
35961;SDS011;22044;48.298;10.008;2023-11-21T09:16:44;4.37;;;2.90;;
35961;SDS011;22044;48.298;10.008;2023-11-21T09:19:32;5.10;;;2.77;;
35961;SDS011;22044;48.298;10.008;2023-11-21T09:22:17;5.10;;;2.40;;
35961;SDS011;22044;48.298;10.008;2023-11-21T09:25:03;3.53;;;2.30;;
35961;SDS011;22044;48.298;10.008;2023-11-21T09:27:50;7.60;;;3.60;;
35961;SDS011;22044;48.298;10.008;2023-11-21T09:30:35;4.07;;;2.73;;
35961;SDS011;22044;48.298;10.008;2023-11-21T09:33:22;6.13;;;2.97;;
35961;SDS011;22044;48.298;10.008;2023-11-21T09:36:12;4.83;;;2.90;;
35961;SDS011;22044;48.298;10.008;2023-11-21T09:38:58;3.20;;;2.10;;
35961;SDS011;22044;48.298;10.008;2023-11-21T09:41:46;3.63;;;2.70;;
35961;SDS011;22044;48.298;10.008;2023-11-21T09:44:35;6.83;;;3.43;;
35961;SDS011;22044;48.298;10.008;2023-11-21T09:47:28;4.37;;;3.37;;
35961;SDS011;22044;48.298;10.008;2023-11-21T09:50:14;5.20;;;2.80;;
35961;SDS011;22044;48.298;10.008;2023-11-21T09:53:06;4.37;;;2.77;;
35961;SDS011;22044;48.298;10.008;2023-11-21T09:55:58;4.43;;;2.97;;
35961;SDS011;22044;48.298;10.008;2023-11-21T09:58:46;4.43;;;2.40;;
35961;SDS011;22044;48.298;10.008;2023-11-21T10:01:31;3.53;;;2.80;;
35961;SDS011;22044;48.298;10.008;2023-11-21T10:04:17;4.53;;;2.53;;
35961;SDS011;22044;48.298;10.008;2023-11-21T10:07:04;4.17;;;2.47;;
35961;SDS011;22044;48.298;10.008;2023-11-21T10:09:54;5.37;;;2.23;;
35961;SDS011;22044;48.298;10.008;2023-11-21T10:12:40;5.07;;;2.73;;
35961;SDS011;22044;48.298;10.008;2023-11-21T10:15:28;2.77;;;2.33;;
35961;SDS011;22044;48.298;10.008;2023-11-21T10:18:18;5.40;;;2.03;;
35961;SDS011;22044;48.298;10.008;2023-11-21T10:21:06;4.57;;;2.53;;
35961;SDS011;22044;48.298;10.008;2023-11-21T10:23:53;3.97;;;2.80;;
35961;SDS011;22044;48.298;10.008;2023-11-21T10:26:41;3.30;;;2.20;;
35961;SDS011;22044;48.298;10.008;2023-11-21T10:29:28;3.63;;;2.47;;
35961;SDS011;22044;48.298;10.008;2023-11-21T10:32:14;2.07;;;1.87;;
35961;SDS011;22044;48.298;10.008;2023-11-21T10:35:00;3.97;;;1.97;;
35961;SDS011;22044;48.298;10.008;2023-11-21T10:37:54;2.10;;;1.87;;
35961;SDS011;22044;48.298;10.008;2023-11-21T10:40:45;2.80;;;1.90;;
35961;SDS011;22044;48.298;10.008;2023-11-21T10:43:32;2.50;;;1.90;;
35961;SDS011;22044;48.298;10.008;2023-11-21T10:46:18;3.60;;;2.20;;
35961;SDS011;22044;48.298;10.008;2023-11-21T10:49:04;3.60;;;2.20;;
35961;SDS011;22044;48.298;10.008;2023-11-21T10:51:50;2.10;;;1.90;;
35961;SDS011;22044;48.298;10.008;2023-11-21T10:54:37;4.93;;;3.30;;
35961;SDS011;22044;48.298;10.008;2023-11-21T10:57:22;3.07;;;2.20;;
35961;SDS011;22044;48.298;10.008;2023-11-21T11:00:11;3.87;;;2.20;;
35961;SDS011;22044;48.298;10.008;2023-11-21T11:02:58;4.30;;;2.10;;
35961;SDS011;22044;48.298;10.008;2023-11-21T11:05:44;3.37;;;2.10;;
35961;SDS011;22044;48.298;10.008;2023-11-21T11:08:35;3.57;;;1.87;;
35961;SDS011;22044;48.298;10.008;2023-11-21T11:11:21;3.50;;;1.50;;
35961;SDS011;22044;48.298;10.008;2023-11-21T11:14:08;1.47;;;1.30;;
35961;SDS011;22044;48.298;10.008;2023-11-21T11:16:57;2.17;;;1.80;;
35961;SDS011;22044;48.298;10.008;2023-11-21T11:19:44;3.53;;;1.20;;
35961;SDS011;22044;48.298;10.008;2023-11-21T11:22:34;1.30;;;1.20;;
35961;SDS011;22044;48.298;10.008;2023-11-21T11:25:29;1.93;;;1.20;;
35961;SDS011;22044;48.298;10.008;2023-11-21T11:28:28;3.30;;;1.53;;
35961;SDS011;22044;48.298;10.008;2023-11-21T11:31:24;2.50;;;1.50;;
35961;SDS011;22044;48.298;10.008;2023-11-21T11:34:26;2.03;;;1.70;;
35961;SDS011;22044;48.298;10.008;2023-11-21T11:37:15;2.10;;;1.30;;
35961;SDS011;22044;48.298;10.008;2023-11-21T11:40:01;1.50;;;1.40;;
35961;SDS011;22044;48.298;10.008;2023-11-21T11:42:57;1.60;;;1.50;;
35961;SDS011;22044;48.298;10.008;2023-11-21T11:45:43;1.77;;;1.50;;
35961;SDS011;22044;48.298;10.008;2023-11-21T11:48:37;1.50;;;1.20;;
35961;SDS011;22044;48.298;10.008;2023-11-21T11:51:25;2.20;;;1.43;;
35961;SDS011;22044;48.298;10.008;2023-11-21T11:54:10;2.23;;;1.30;;
35961;SDS011;22044;48.298;10.008;2023-11-21T11:56:56;2.30;;;1.27;;
35961;SDS011;22044;48.298;10.008;2023-11-21T12:02:55;1.60;;;1.23;;
35961;SDS011;22044;48.298;10.008;2023-11-21T12:05:42;2.87;;;2.17;;
35961;SDS011;22044;48.298;10.008;2023-11-21T12:08:34;2.33;;;1.30;;
35961;SDS011;22044;48.298;10.008;2023-11-21T12:11:20;1.20;;;1.10;;
35961;SDS011;22044;48.298;10.008;2023-11-21T12:14:15;2.07;;;1.63;;
35961;SDS011;22044;48.298;10.008;2023-11-21T12:17:02;2.10;;;1.20;;
35961;SDS011;22044;48.298;10.008;2023-11-21T12:19:48;4.80;;;3.90;;
35961;SDS011;22044;48.298;10.008;2023-11-21T12:22:36;1.40;;;1.07;;
35961;SDS011;22044;48.298;10.008;2023-11-21T12:25:23;6.17;;;4.53;;
35961;SDS011;22044;48.298;10.008;2023-11-21T12:28:12;3.27;;;2.97;;
35961;SDS011;22044;48.298;10.008;2023-11-21T12:30:57;3.03;;;2.67;;
35961;SDS011;22044;48.298;10.008;2023-11-21T12:33:44;11.43;;;8.40;;
35961;SDS011;22044;48.298;10.008;2023-11-21T12:36:29;3.00;;;1.60;;
35961;SDS011;22044;48.298;10.008;2023-11-21T12:39:15;4.37;;;1.13;;
35961;SDS011;22044;48.298;10.008;2023-11-21T12:42:02;1.00;;;1.00;;
35961;SDS011;22044;48.298;10.008;2023-11-21T12:45:05;0.90;;;0.90;;
35961;SDS011;22044;48.298;10.008;2023-11-21T12:47:54;3.07;;;1.10;;
35961;SDS011;22044;48.298;10.008;2023-11-21T12:50:43;1.90;;;0.97;;
35961;SDS011;22044;48.298;10.008;2023-11-21T12:53:32;2.67;;;1.00;;
35961;SDS011;22044;48.298;10.008;2023-11-21T12:56:22;1.43;;;0.80;;
35961;SDS011;22044;48.298;10.008;2023-11-21T12:59:09;0.70;;;0.70;;
35961;SDS011;22044;48.298;10.008;2023-11-21T13:01:57;1.20;;;0.60;;
35961;SDS011;22044;48.298;10.008;2023-11-21T13:04:51;1.17;;;0.60;;
35961;SDS011;22044;48.298;10.008;2023-11-21T13:07:40;0.60;;;0.60;;
35961;SDS011;22044;48.298;10.008;2023-11-21T13:10:31;0.50;;;0.50;;
35961;SDS011;22044;48.298;10.008;2023-11-21T13:13:20;0.50;;;0.50;;
35961;SDS011;22044;48.298;10.008;2023-11-21T13:16:07;0.70;;;0.70;;
35961;SDS011;22044;48.298;10.008;2023-11-21T13:18:53;1.77;;;0.80;;
35961;SDS011;22044;48.298;10.008;2023-11-21T13:21:39;0.60;;;0.60;;
35961;SDS011;22044;48.298;10.008;2023-11-21T13:24:25;2.03;;;0.63;;
35961;SDS011;22044;48.298;10.008;2023-11-21T13:27:11;0.70;;;0.70;;
35961;SDS011;22044;48.298;10.008;2023-11-21T13:29:59;2.10;;;0.90;;
35961;SDS011;22044;48.298;10.008;2023-11-21T13:32:46;1.80;;;1.17;;
35961;SDS011;22044;48.298;10.008;2023-11-21T13:35:35;0.60;;;0.60;;
35961;SDS011;22044;48.298;10.008;2023-11-21T13:38:25;0.80;;;0.80;;
35961;SDS011;22044;48.298;10.008;2023-11-21T13:41:15;1.07;;;0.63;;
35961;SDS011;22044;48.298;10.008;2023-11-21T13:44:01;1.00;;;0.80;;
35961;SDS011;22044;48.298;10.008;2023-11-21T13:46:59;0.90;;;0.90;;
35961;SDS011;22044;48.298;10.008;2023-11-21T13:49:46;1.47;;;0.93;;
35961;SDS011;22044;48.298;10.008;2023-11-21T13:52:33;1.10;;;1.00;;
35961;SDS011;22044;48.298;10.008;2023-11-21T13:55:19;1.20;;;1.00;;
35961;SDS011;22044;48.298;10.008;2023-11-21T13:58:09;1.13;;;0.80;;
35961;SDS011;22044;48.298;10.008;2023-11-21T14:01:00;1.63;;;1.00;;
35961;SDS011;22044;48.298;10.008;2023-11-21T14:03:49;0.73;;;0.70;;
35961;SDS011;22044;48.298;10.008;2023-11-21T14:06:42;0.97;;;0.97;;
35961;SDS011;22044;48.298;10.008;2023-11-21T14:09:32;1.93;;;1.07;;
35961;SDS011;22044;48.298;10.008;2023-11-21T14:12:19;1.73;;;1.00;;
35961;SDS011;22044;48.298;10.008;2023-11-21T14:15:05;1.53;;;1.00;;
35961;SDS011;22044;48.298;10.008;2023-11-21T14:17:53;1.37;;;1.00;;
35961;SDS011;22044;48.298;10.008;2023-11-21T14:20:39;1.00;;;0.90;;
35961;SDS011;22044;48.298;10.008;2023-11-21T14:23:27;0.90;;;0.80;;
35961;SDS011;22044;48.298;10.008;2023-11-21T14:26:13;0.97;;;0.93;;
35961;SDS011;22044;48.298;10.008;2023-11-21T14:29:00;2.23;;;0.80;;
35961;SDS011;22044;48.298;10.008;2023-11-21T14:31:46;1.00;;;0.80;;
35961;SDS011;22044;48.298;10.008;2023-11-21T14:34:32;1.33;;;1.20;;
35961;SDS011;22044;48.298;10.008;2023-11-21T14:37:18;2.70;;;0.80;;
35961;SDS011;22044;48.298;10.008;2023-11-21T14:40:05;1.20;;;1.10;;
35961;SDS011;22044;48.298;10.008;2023-11-21T14:42:52;1.10;;;0.80;;
35961;SDS011;22044;48.298;10.008;2023-11-21T14:45:41;1.20;;;0.90;;
35961;SDS011;22044;48.298;10.008;2023-11-21T14:48:26;1.20;;;0.87;;
35961;SDS011;22044;48.298;10.008;2023-11-21T14:51:26;2.27;;;1.00;;
35961;SDS011;22044;48.298;10.008;2023-11-21T14:54:14;1.30;;;0.93;;
35961;SDS011;22044;48.298;10.008;2023-11-21T14:57:10;1.63;;;1.00;;
35961;SDS011;22044;48.298;10.008;2023-11-21T14:59:59;2.40;;;0.93;;
35961;SDS011;22044;48.298;10.008;2023-11-21T15:02:44;1.63;;;0.90;;
35961;SDS011;22044;48.298;10.008;2023-11-21T15:05:33;0.90;;;0.90;;
35961;SDS011;22044;48.298;10.008;2023-11-21T15:08:19;0.70;;;0.70;;
35961;SDS011;22044;48.298;10.008;2023-11-21T15:11:05;0.80;;;0.80;;
35961;SDS011;22044;48.298;10.008;2023-11-21T15:13:59;0.80;;;0.80;;
35961;SDS011;22044;48.298;10.008;2023-11-21T15:16:50;1.77;;;1.00;;
35961;SDS011;22044;48.298;10.008;2023-11-21T15:19:41;1.03;;;0.97;;
35961;SDS011;22044;48.298;10.008;2023-11-21T15:22:27;1.20;;;1.03;;
35961;SDS011;22044;48.298;10.008;2023-11-21T15:25:13;1.30;;;1.20;;
35961;SDS011;22044;48.298;10.008;2023-11-21T15:27:59;1.23;;;1.10;;
35961;SDS011;22044;48.298;10.008;2023-11-21T15:30:46;1.03;;;0.70;;
35961;SDS011;22044;48.298;10.008;2023-11-21T15:33:34;2.03;;;1.83;;
35961;SDS011;22044;48.298;10.008;2023-11-21T15:36:21;14.13;;;11.05;;
35961;SDS011;22044;48.298;10.008;2023-11-21T15:39:06;11.77;;;8.80;;
